createdAt,value
2022-11-03T00:01:39.179Z,7.23
2022-11-03T00:04:40.823Z,7.29
2022-11-03T00:07:42.321Z,7.26
2022-11-03T00:10:44.055Z,7.24
2022-11-03T00:13:45.591Z,7.23
2022-11-03T00:16:47.734Z,7.22
2022-11-03T00:19:49.288Z,7.16
2022-11-03T00:22:50.868Z,7.19
2022-11-03T00:25:52.386Z,7.12
2022-11-03T00:28:54.748Z,7.14
2022-11-03T00:31:56.268Z,7.15
2022-11-03T00:34:57.850Z,7.14
2022-11-03T00:37:59.408Z,7.14
2022-11-03T00:41:01.370Z,7.20
2022-11-03T00:44:02.874Z,7.18
2022-11-03T00:47:04.508Z,7.14
2022-11-03T00:50:06.139Z,7.10
2022-11-03T00:53:08.043Z,7.15
2022-11-03T00:56:11.335Z,7.16
2022-11-03T00:59:13.021Z,7.17
2022-11-03T01:02:14.758Z,7.18
2022-11-03T01:05:34.952Z,7.20
2022-11-03T01:08:36.831Z,7.12
2022-11-03T01:11:44.294Z,7.13
2022-11-03T01:14:47.145Z,7.06
2022-11-03T01:17:48.698Z,7.03
2022-11-03T01:20:56.837Z,7.05
2022-11-03T01:24:00.759Z,7.03
2022-11-03T01:27:02.306Z,7.02
2022-11-03T01:30:04.088Z,7.06
2022-11-03T01:33:05.941Z,6.98
2022-11-03T01:36:07.968Z,6.95
2022-11-03T01:39:10.752Z,6.84
2022-11-03T01:42:13.836Z,6.84
2022-11-03T01:45:15.455Z,6.84
2022-11-03T01:48:17.044Z,6.87
2022-11-03T01:51:19.366Z,6.85
2022-11-03T01:54:21.680Z,6.72
2022-11-03T01:57:25.340Z,6.72
2022-11-03T02:00:26.903Z,6.75
2022-11-03T02:03:29.260Z,6.78
2022-11-03T02:06:30.837Z,6.78
2022-11-03T02:09:32.361Z,6.80
2022-11-03T02:12:33.896Z,6.78
2022-11-03T02:15:35.484Z,6.77
2022-11-03T02:18:37.162Z,6.76
2022-11-03T02:21:41.774Z,6.70
2022-11-03T02:25:09.500Z,6.60
2022-11-03T02:28:11.695Z,6.50
2022-11-03T02:31:31.662Z,6.45
2022-11-03T02:34:39.952Z,6.44
2022-11-03T02:37:42.560Z,6.46
2022-11-03T02:40:46.021Z,6.44
2022-11-03T02:43:47.922Z,6.44
2022-11-03T02:46:50.403Z,6.61
2022-11-03T02:49:53.374Z,6.66
2022-11-03T02:52:55.127Z,6.61
2022-11-03T02:56:06.050Z,6.67
2022-11-03T02:59:11.724Z,6.85
2022-11-03T03:02:16.164Z,7.00
2022-11-03T03:05:17.867Z,7.14
2022-11-03T03:08:19.419Z,7.16
2022-11-03T03:11:37.696Z,7.15
2022-11-03T03:14:41.884Z,7.31
2022-11-03T03:17:46.366Z,7.23
2022-11-03T03:20:58.036Z,7.23
2022-11-03T03:24:00.402Z,7.22
2022-11-03T03:27:02.088Z,7.11
2022-11-03T03:30:06.986Z,7.04
2022-11-03T03:33:09.021Z,6.94
2022-11-03T03:36:12.118Z,6.87
2022-11-03T03:39:13.774Z,6.83
2022-11-03T03:42:15.356Z,6.85
2022-11-03T03:45:16.910Z,6.80
2022-11-03T03:48:18.508Z,6.83
2022-11-03T03:51:20.880Z,6.91
2022-11-03T03:54:22.443Z,6.87
2022-11-03T03:57:24.685Z,6.88
2022-11-03T04:00:26.209Z,6.85
2022-11-03T04:03:29.295Z,6.79
2022-11-03T04:06:30.832Z,6.73
2022-11-03T04:09:32.360Z,6.74
2022-11-03T04:12:52.339Z,6.82
2022-11-03T04:16:12.710Z,6.86
2022-11-03T04:19:33.006Z,6.94
2022-11-03T04:22:34.515Z,7.00
2022-11-03T04:25:36.046Z,6.74
2022-11-03T04:28:37.578Z,6.75
2022-11-03T04:31:39.195Z,6.88
2022-11-03T04:34:41.337Z,6.63
2022-11-03T04:37:46.549Z,6.40
2022-11-03T04:40:53.695Z,6.39
2022-11-03T04:43:56.309Z,6.38
2022-11-03T04:46:57.837Z,6.47
2022-11-03T04:49:59.359Z,6.48
2022-11-03T04:53:00.914Z,6.50
2022-11-03T04:56:07.217Z,6.50
2022-11-03T04:59:12.788Z,6.46
2022-11-03T05:02:15.706Z,6.42
2022-11-03T05:05:20.738Z,6.42
2022-11-03T05:08:22.327Z,6.39
2022-11-03T05:11:34.867Z,6.33
2022-11-03T05:14:36.460Z,6.28
2022-11-03T05:17:37.991Z,6.23
2022-11-03T05:20:42.140Z,6.30
2022-11-03T05:23:48.910Z,6.33
2022-11-03T05:26:50.443Z,6.40
2022-11-03T05:29:53.995Z,6.40
2022-11-03T05:32:58.012Z,6.35
2022-11-03T05:36:01.783Z,6.29
2022-11-03T05:39:13.631Z,6.29
2022-11-03T05:42:31.936Z,6.33
2022-11-03T05:45:33.850Z,6.35
2022-11-03T05:48:35.823Z,6.34
2022-11-03T05:51:38.195Z,6.29
2022-11-03T05:54:39.683Z,6.35
2022-11-03T05:57:41.225Z,6.31
2022-11-03T06:00:48.080Z,6.28
2022-11-03T06:03:49.802Z,6.25
2022-11-03T06:06:54.522Z,6.22
2022-11-03T06:09:56.074Z,6.35
2022-11-03T06:13:01.978Z,6.32
2022-11-03T06:16:04.779Z,6.21
2022-11-03T06:19:18.788Z,6.04
2022-11-03T06:22:20.274Z,5.95
2022-11-03T06:25:24.920Z,5.85
2022-11-03T06:28:27.200Z,5.74
2022-11-03T06:31:29.256Z,5.70
2022-11-03T06:34:33.033Z,5.67
2022-11-03T06:37:34.734Z,5.68
2022-11-03T06:40:36.538Z,5.67
2022-11-03T06:43:39.957Z,5.71
2022-11-03T06:46:41.467Z,5.74
2022-11-03T06:49:42.960Z,5.79
2022-11-03T06:52:44.640Z,5.86
2022-11-03T06:55:47.211Z,5.92
2022-11-03T06:58:49.087Z,6.09
2022-11-03T07:01:52.130Z,6.09
2022-11-03T07:04:53.634Z,5.99
2022-11-03T07:07:55.683Z,5.85
2022-11-03T07:11:17.460Z,5.74
2022-11-03T07:14:29.585Z,5.62
2022-11-03T07:17:31.080Z,5.57
2022-11-03T07:20:32.603Z,5.47
2022-11-03T07:23:34.078Z,5.43
2022-11-03T07:26:35.603Z,5.42
2022-11-03T07:29:37.092Z,5.40
2022-11-03T07:32:38.814Z,5.40
2022-11-03T07:36:12.988Z,5.35
2022-11-03T07:39:03.267Z,5.31
2022-11-03T07:42:14.646Z,5.31
2022-11-03T07:45:33.834Z,5.36
2022-11-03T07:48:40.067Z,5.42
2022-11-03T07:51:41.649Z,5.45
2022-11-03T07:54:43.174Z,5.45
2022-11-03T07:57:44.699Z,5.45
2022-11-03T08:00:46.240Z,5.54
2022-11-03T08:03:47.921Z,5.67
2022-11-03T08:06:50.167Z,5.82
2022-11-03T08:09:52.122Z,5.94
2022-11-03T08:12:53.653Z,5.94
2022-11-03T08:15:55.234Z,5.88
2022-11-03T08:18:57.200Z,5.79
2022-11-03T08:21:58.866Z,5.69
2022-11-03T08:25:00.388Z,5.67
2022-11-03T08:28:03.183Z,5.77
2022-11-03T08:31:09.500Z,5.90
2022-11-03T08:34:14.062Z,5.97
2022-11-03T08:37:15.560Z,6.00
2022-11-03T08:40:17.283Z,6.02
2022-11-03T08:43:18.880Z,6.05
2022-11-03T08:46:20.444Z,6.04
2022-11-03T08:49:21.951Z,5.97
2022-11-03T08:52:23.592Z,5.92
2022-11-03T08:55:25.179Z,5.91
2022-11-03T08:58:27.006Z,5.94
2022-11-03T09:01:28.553Z,6.01
2022-11-03T09:04:30.138Z,6.08
2022-11-03T09:10:53.488Z,6.13
2022-11-03T09:13:55.050Z,6.13
2022-11-03T09:16:56.799Z,6.14
2022-11-03T09:19:58.454Z,6.16
2022-11-03T09:23:00.279Z,6.19
2022-11-03T09:26:01.799Z,6.21
2022-11-03T09:29:03.387Z,6.20
2022-11-03T09:32:05.293Z,6.15
2022-11-03T09:35:08.053Z,6.07
2022-11-03T09:38:09.926Z,6.03
2022-11-03T09:41:27.879Z,6.09
2022-11-03T09:44:42.420Z,6.32
2022-11-03T09:47:45.344Z,6.70
2022-11-03T09:50:47.965Z,6.95
2022-11-03T09:53:49.938Z,7.17
2022-11-03T09:56:51.520Z,7.27
2022-11-03T09:59:53.056Z,7.40
2022-11-03T10:02:54.809Z,7.52
2022-11-03T10:05:56.366Z,7.58
2022-11-03T10:08:57.902Z,7.55
2022-11-03T10:11:59.419Z,7.55
2022-11-03T10:15:01.388Z,7.41
2022-11-03T10:18:03.145Z,7.43
2022-11-03T10:21:06.132Z,7.72
2022-11-03T10:24:11.290Z,8.06
2022-11-03T10:27:25.687Z,8.20
2022-11-03T10:30:29.601Z,8.40
2022-11-03T10:33:35.886Z,8.54
2022-11-03T10:36:37.808Z,8.65
2022-11-03T10:39:39.423Z,8.90
2022-11-03T10:42:41.022Z,8.81
2022-11-03T10:45:42.532Z,9.17
2022-11-03T10:48:44.188Z,9.20
2022-11-03T10:51:47.556Z,9.87
2022-11-03T10:54:50.086Z,10.78
2022-11-03T10:57:53.210Z,11.35
2022-11-03T11:00:55.042Z,11.76
2022-11-03T11:03:56.678Z,11.99
2022-11-03T11:06:58.277Z,12.56
2022-11-03T11:10:05.317Z,13.16
2022-11-03T11:13:14.124Z,13.42
2022-11-03T11:16:35.883Z,13.09
2022-11-03T11:19:56.076Z,13.16
2022-11-03T11:23:17.588Z,13.48
2022-11-03T11:26:22.176Z,13.86
2022-11-03T11:29:23.676Z,13.69
2022-11-03T11:32:48.540Z,13.75
2022-11-03T11:35:54.020Z,14.15
2022-11-03T11:38:59.831Z,13.84
2022-11-03T11:42:12.276Z,13.22
2022-11-03T11:45:14.084Z,13.54
2022-11-03T11:48:19.180Z,13.13
2022-11-03T11:51:20.964Z,13.84
2022-11-03T11:54:22.509Z,14.00
2022-11-03T11:57:24.134Z,14.29
2022-11-03T12:00:34.958Z,14.22
2022-11-03T12:03:37.978Z,14.20
2022-11-03T12:06:42.459Z,15.31
2022-11-03T12:09:45.372Z,15.63
2022-11-03T12:12:46.946Z,15.79
2022-11-03T12:15:55.094Z,15.59
2022-11-03T12:18:56.683Z,15.87
2022-11-03T12:21:58.324Z,15.51
2022-11-03T12:25:00.798Z,14.18
2022-11-03T12:28:02.391Z,13.14
2022-11-03T12:31:04.035Z,12.65
2022-11-03T12:34:05.660Z,12.37
2022-11-03T12:37:07.149Z,11.94
2022-11-03T12:40:09.324Z,11.59
2022-11-03T12:43:11.430Z,11.45
2022-11-03T12:46:13.184Z,11.50
2022-11-03T12:49:14.782Z,12.84
2022-11-03T12:52:16.346Z,12.68
2022-11-03T12:55:17.997Z,12.09
2022-11-03T12:58:19.628Z,12.76
2022-11-03T13:01:21.264Z,14.18
2022-11-03T13:04:22.863Z,15.44
2022-11-03T13:07:30.383Z,15.75
2022-11-03T13:10:35.925Z,16.19
2022-11-03T13:13:37.582Z,17.22
2022-11-03T13:16:39.110Z,17.25
2022-11-03T13:19:40.645Z,16.20
2022-11-03T13:22:42.154Z,15.86
2022-11-03T13:25:46.387Z,14.12
2022-11-03T13:28:48.011Z,12.93
2022-11-03T13:31:49.531Z,12.22
2022-11-03T13:34:51.096Z,11.60
2022-11-03T13:37:53.358Z,11.12
2022-11-03T13:40:56.896Z,10.72
2022-11-03T13:43:59.549Z,10.36
2022-11-03T13:47:01.066Z,10.07
2022-11-03T13:50:18.549Z,10.00
2022-11-03T14:00:05.522Z,11.07
2022-11-03T14:06:35.786Z,10.72
2022-11-03T14:12:43.676Z,9.62
2022-11-03T14:15:45.236Z,9.37
2022-11-03T14:18:46.757Z,9.25
2022-11-03T14:21:48.284Z,9.06
2022-11-03T14:24:50.112Z,8.93
2022-11-03T14:27:51.762Z,9.02
2022-11-03T14:30:55.444Z,9.08
2022-11-03T14:33:56.939Z,8.86
2022-11-03T14:36:58.541Z,8.77
2022-11-03T14:40:00.086Z,8.79
2022-11-03T14:43:01.579Z,8.74
2022-11-03T14:46:03.212Z,8.76
2022-11-03T14:49:04.742Z,8.77
2022-11-03T14:52:09.891Z,8.92
2022-11-03T14:55:11.434Z,10.04
2022-11-03T14:58:12.925Z,10.48
2022-11-03T15:01:14.640Z,11.37
2022-11-03T15:04:16.377Z,13.12
2022-11-03T15:07:17.934Z,14.15
2022-11-03T15:10:19.405Z,13.14
2022-11-03T15:13:20.907Z,11.77
2022-11-03T15:16:23.146Z,11.04
2022-11-03T15:19:24.662Z,10.41
2022-11-03T15:25:48.090Z,9.55
2022-11-03T15:28:49.580Z,9.34
2022-11-03T15:31:51.071Z,9.32
2022-11-03T15:34:52.665Z,9.23
2022-11-03T15:37:54.599Z,9.19
2022-11-03T15:41:15.398Z,9.13
2022-11-03T15:44:16.886Z,8.86
2022-11-03T15:47:18.388Z,8.73
2022-11-03T15:50:20.599Z,8.34
2022-11-03T15:53:22.091Z,7.94
2022-11-03T15:56:23.578Z,7.58
2022-11-03T15:59:25.103Z,7.13
2022-11-03T16:02:40.864Z,6.69
2022-11-03T16:05:43.136Z,6.33
2022-11-03T16:08:45.101Z,6.15
2022-11-03T16:11:46.595Z,6.05
2022-11-03T16:14:48.171Z,6.12
2022-11-03T16:17:49.652Z,6.23
2022-11-03T16:20:51.143Z,6.22
2022-11-03T16:23:52.840Z,6.21
2022-11-03T16:26:54.348Z,6.23
2022-11-03T16:29:55.862Z,6.27
2022-11-03T16:32:57.405Z,6.27
2022-11-03T16:35:58.911Z,6.31
2022-11-03T16:39:00.443Z,6.30
2022-11-03T16:42:03.271Z,6.41
2022-11-03T16:45:08.844Z,6.56
2022-11-03T16:48:10.700Z,6.67
2022-11-03T16:51:12.526Z,6.69
2022-11-03T16:54:14.779Z,6.69
2022-11-03T16:57:16.401Z,6.69
2022-11-03T17:00:18.866Z,6.68
2022-11-03T17:03:20.372Z,6.69
2022-11-03T17:06:21.943Z,6.68
2022-11-03T17:09:23.472Z,6.71
2022-11-03T17:12:25.104Z,6.70
2022-11-03T17:15:26.645Z,6.68
2022-11-03T17:18:28.182Z,6.64
2022-11-03T17:21:29.732Z,6.57
2022-11-03T17:24:31.249Z,6.47
2022-11-03T17:27:42.845Z,6.41
2022-11-03T17:30:44.643Z,6.42
2022-11-03T17:33:46.176Z,6.50
2022-11-03T17:36:50.392Z,6.56
2022-11-03T17:39:51.972Z,6.50
2022-11-03T17:42:53.549Z,6.40
2022-11-03T17:45:55.124Z,6.25
2022-11-03T17:48:56.619Z,6.13
2022-11-03T17:51:59.456Z,6.10
2022-11-03T17:55:01.633Z,6.09
2022-11-03T17:58:04.785Z,6.03
2022-11-03T18:01:06.357Z,5.96
2022-11-03T18:07:16.504Z,6.08
2022-11-03T18:10:18.336Z,6.12
2022-11-03T18:13:24.327Z,6.13
2022-11-03T18:16:25.849Z,6.14
2022-11-03T18:19:27.505Z,6.13
2022-11-03T18:22:29.672Z,6.12
2022-11-03T18:25:31.776Z,6.00
2022-11-03T18:28:33.375Z,6.02
2022-11-03T18:31:35.830Z,6.06
2022-11-03T18:34:37.416Z,6.01
2022-11-03T18:37:38.940Z,5.91
2022-11-03T18:40:41.028Z,5.94
2022-11-03T18:43:42.719Z,5.98
2022-11-03T18:46:44.384Z,5.95
2022-11-03T18:49:46.412Z,5.94
2022-11-03T18:52:48.329Z,6.06
2022-11-03T18:55:49.940Z,6.06
2022-11-03T18:58:51.703Z,6.12
2022-11-03T19:01:53.575Z,6.15
2022-11-03T19:04:55.234Z,6.05
2022-11-03T19:07:56.800Z,5.88
2022-11-03T19:11:03.667Z,5.68
2022-11-03T19:14:05.848Z,5.48
2022-11-03T19:17:22.400Z,5.65
2022-11-03T19:20:25.563Z,5.76
2022-11-03T19:23:27.182Z,5.78
2022-11-03T19:26:29.801Z,5.84
2022-11-03T19:29:32.786Z,5.93
2022-11-03T19:32:35.389Z,5.91
2022-11-03T19:35:37.075Z,5.92
2022-11-03T19:38:39.659Z,5.89
2022-11-03T19:42:00.080Z,5.92
2022-11-03T19:45:02.498Z,5.95
2022-11-03T19:51:26.828Z,5.98
2022-11-03T19:54:29.375Z,5.98
2022-11-03T19:57:31.219Z,6.01
2022-11-03T20:00:32.831Z,6.01
2022-11-03T20:03:34.430Z,6.04
2022-11-03T20:06:37.838Z,6.10
2022-11-03T20:09:39.428Z,6.16
2022-11-03T20:12:41.020Z,6.16
2022-11-03T20:15:42.629Z,6.19
2022-11-03T20:18:44.332Z,6.16
2022-11-03T20:21:45.950Z,6.19
2022-11-03T20:24:47.698Z,6.11
2022-11-03T20:27:49.475Z,6.15
2022-11-03T20:30:51.498Z,6.20
2022-11-03T20:33:53.771Z,6.25
2022-11-03T20:36:55.431Z,6.20
2022-11-03T20:39:56.947Z,6.18
2022-11-03T20:43:00.047Z,6.15
2022-11-03T20:46:01.651Z,6.13
2022-11-03T20:49:03.203Z,6.06
2022-11-03T20:52:06.284Z,6.02
2022-11-03T20:55:14.486Z,5.93
2022-11-03T20:58:17.056Z,5.89
2022-11-03T21:01:19.657Z,5.75
2022-11-03T21:04:21.288Z,5.68
2022-11-03T21:07:22.840Z,5.67
2022-11-03T21:10:24.436Z,5.70
2022-11-03T21:13:25.985Z,5.66
2022-11-03T21:16:46.721Z,5.65
2022-11-03T21:20:02.790Z,5.72
2022-11-03T21:23:06.427Z,5.72
2022-11-03T21:26:09.844Z,5.77
2022-11-03T21:29:11.372Z,5.72
2022-11-03T21:32:14.012Z,5.73
2022-11-03T21:35:16.677Z,5.74
2022-11-03T21:38:18.476Z,5.81
2022-11-03T21:41:38.728Z,5.82
2022-11-03T21:44:40.392Z,5.94
2022-11-03T21:48:01.900Z,6.05
2022-11-03T21:51:03.487Z,6.07
2022-11-03T21:54:05.162Z,6.09
2022-11-03T21:57:07.383Z,6.03
2022-11-03T22:00:09.338Z,5.95
2022-11-03T22:03:11.461Z,5.93
2022-11-03T22:06:13.144Z,5.93
2022-11-03T22:09:15.295Z,5.93
2022-11-03T22:12:16.972Z,5.86
2022-11-03T22:15:37.111Z,5.83
2022-11-03T22:18:38.620Z,5.74
2022-11-03T22:21:58.616Z,5.71
2022-11-03T22:25:18.800Z,5.68
2022-11-03T22:28:20.634Z,5.63
2022-11-03T22:31:40.548Z,5.47
2022-11-03T22:35:00.520Z,5.37
2022-11-03T22:38:06.293Z,5.31
2022-11-03T22:41:26.599Z,5.28
2022-11-03T22:45:03.536Z,5.12
2022-11-03T22:48:05.187Z,5.06
2022-11-03T22:51:08.972Z,5.05
2022-11-03T22:54:10.554Z,4.99
2022-11-03T22:57:13.215Z,4.97
2022-11-03T23:00:15.246Z,5.04
2022-11-03T23:03:16.807Z,5.03
2022-11-03T23:06:19.679Z,4.93
2022-11-03T23:09:21.249Z,4.89
2022-11-03T23:12:22.866Z,4.86
2022-11-03T23:15:33.531Z,4.86
2022-11-03T23:18:53.566Z,4.78
2022-11-03T23:21:55.177Z,4.73
2022-11-03T23:24:59.783Z,4.83
2022-11-03T23:28:01.305Z,4.79
2022-11-03T23:31:02.887Z,4.78
2022-11-03T23:34:04.837Z,4.73
2022-11-03T23:37:06.514Z,4.71
2022-11-03T23:40:08.335Z,4.64
2022-11-03T23:43:09.972Z,4.69
2022-11-03T23:46:30.727Z,4.80
2022-11-03T23:49:32.485Z,4.83
2022-11-03T23:52:34.156Z,4.79
2022-11-03T23:55:55.659Z,4.70
2022-11-03T23:58:57.196Z,4.69
